Main page
METAR-TAF:

METAR-TAF

Airports :

Berlin Brandenburg Airport

Berlin, Germany

latitude: 52-23N, longitude: 013-31E, elevation: 47 m

Current weather observation

The report was made 33 minutes ago, at 23:50 UTC
Wind 9 kt from the Southwest
Temperature 13°C
Humidity 82%
Pressure 1025 hPa
Visibility 10 km or more
no clouds below 1500 m and no cumulonimbus

METAR: EDDB 122350Z AUTO 23009KT CAVOK 13/10 Q1025 NOSIG

Time: 02:23 (00:23 UTC)

Forecast

The report was made 1 hour and 23 minutes ago, at 23:00 UTC
Forecast valid from 13 at 00 UTC to 13 at 24 UTC
Wind 7 kt from the West/Southwest
Visibility 10 km or more
no clouds below 1500 m and no cumulonimbus
Becoming
from 13 at 07 UTC to 13 at 09 UTC
Wind 13 kt from the West/Southwest
Temporary
from 13 at 09 UTC to 13 at 15 UTC
Wind 15 kt from the West/Southwest with gusts up to 25 kt
Becoming
from 13 at 15 UTC to 13 at 18 UTC
Wind 8 kt from the Southwest

TAF: EDDB 122300Z 1300/1324 24007KT CAVOK BECMG 1307/1309 25013KT TEMPO 1309/1315 25015G25KT BECMG 1315/1318 22008KT

Weather observations and forecasts of more than 4000 airports (METAR and TAF reports).

The available stations are represented by yellow and red dots on the map.

Hover mouse over dot to see the name of the station.

Then click to see weather observations and forecasts.

To change the map : click on the green buttons with a black cross to zoom in, on the green button with a dash to zoom out, or on the green arrows for adjacent maps.


METAR-TAF: